sensor_id;sensor_type;location;lat;lon;timestamp;temperature;humidity
13610;DHT22;6876;50.788;4.940;2022-11-15T00:01:27;10.30;99.90
13610;DHT22;6876;50.788;4.940;2022-11-15T00:04:14;10.40;99.90
13610;DHT22;6876;50.788;4.940;2022-11-15T00:07:01;10.40;99.90
13610;DHT22;6876;50.788;4.940;2022-11-15T00:09:49;10.50;99.90
13610;DHT22;6876;50.788;4.940;2022-11-15T00:12:36;10.50;99.90
13610;DHT22;6876;50.788;4.940;2022-11-15T00:15:24;10.60;99.90
13610;DHT22;6876;50.788;4.940;2022-11-15T00:18:12;10.60;99.90
13610;DHT22;6876;50.788;4.940;2022-11-15T00:21:04;10.60;99.90
13610;DHT22;6876;50.788;4.940;2022-11-15T00:23:52;10.60;99.90
13610;DHT22;6876;50.788;4.940;2022-11-15T00:26:39;10.60;99.90
13610;DHT22;6876;50.788;4.940;2022-11-15T00:29:26;10.70;99.90
13610;DHT22;6876;50.788;4.940;2022-11-15T00:32:15;10.70;99.90
13610;DHT22;6876;50.788;4.940;2022-11-15T00:35:02;10.80;99.90
13610;DHT22;6876;50.788;4.940;2022-11-15T00:37:52;10.80;99.90
13610;DHT22;6876;50.788;4.940;2022-11-15T00:40:39;10.80;99.90
13610;DHT22;6876;50.788;4.940;2022-11-15T00:43:27;10.80;99.90
13610;DHT22;6876;50.788;4.940;2022-11-15T00:46:14;10.80;99.90
13610;DHT22;6876;50.788;4.940;2022-11-15T00:49:02;10.80;99.90
13610;DHT22;6876;50.788;4.940;2022-11-15T00:51:49;10.80;99.90
13610;DHT22;6876;50.788;4.940;2022-11-15T00:54:37;10.70;99.90
13610;DHT22;6876;50.788;4.940;2022-11-15T00:57:24;10.70;99.90
13610;DHT22;6876;50.788;4.940;2022-11-15T01:00:12;10.70;99.90
13610;DHT22;6876;50.788;4.940;2022-11-15T01:03:00;10.60;99.90
13610;DHT22;6876;50.788;4.940;2022-11-15T01:05:48;10.60;99.90
13610;DHT22;6876;50.788;4.940;2022-11-15T01:08:35;10.60;99.90
13610;DHT22;6876;50.788;4.940;2022-11-15T01:11:23;10.60;99.90
13610;DHT22;6876;50.788;4.940;2022-11-15T01:14:10;10.70;99.90
13610;DHT22;6876;50.788;4.940;2022-11-15T01:16:57;10.70;99.90
13610;DHT22;6876;50.788;4.940;2022-11-15T01:19:45;10.80;99.90
13610;DHT22;6876;50.788;4.940;2022-11-15T01:22:33;10.80;99.90
13610;DHT22;6876;50.788;4.940;2022-11-15T01:25:20;10.90;99.90
13610;DHT22;6876;50.788;4.940;2022-11-15T01:28:07;10.90;99.90
13610;DHT22;6876;50.788;4.940;2022-11-15T01:30:57;10.90;99.90
13610;DHT22;6876;50.788;4.940;2022-11-15T01:33:45;10.90;99.90
13610;DHT22;6876;50.788;4.940;2022-11-15T01:36:32;10.90;99.90
13610;DHT22;6876;50.788;4.940;2022-11-15T01:39:21;10.90;99.90
13610;DHT22;6876;50.788;4.940;2022-11-15T01:42:12;10.90;99.90
13610;DHT22;6876;50.788;4.940;2022-11-15T01:44:59;10.90;99.90
13610;DHT22;6876;50.788;4.940;2022-11-15T01:47:50;10.90;99.90
13610;DHT22;6876;50.788;4.940;2022-11-15T01:50:37;11.00;99.90
13610;DHT22;6876;50.788;4.940;2022-11-15T01:53:26;11.00;99.90
13610;DHT22;6876;50.788;4.940;2022-11-15T01:56:18;11.10;99.90
13610;DHT22;6876;50.788;4.940;2022-11-15T01:59:07;11.10;99.90
13610;DHT22;6876;50.788;4.940;2022-11-15T02:01:55;11.10;99.90
13610;DHT22;6876;50.788;4.940;2022-11-15T02:04:44;11.20;99.90
13610;DHT22;6876;50.788;4.940;2022-11-15T02:07:32;11.30;99.90
13610;DHT22;6876;50.788;4.940;2022-11-15T02:10:23;11.30;99.90
13610;DHT22;6876;50.788;4.940;2022-11-15T02:13:12;11.30;99.90
13610;DHT22;6876;50.788;4.940;2022-11-15T02:16:05;11.30;99.90
13610;DHT22;6876;50.788;4.940;2022-11-15T02:18:59;11.30;99.90
13610;DHT22;6876;50.788;4.940;2022-11-15T02:21:55;11.30;99.90
13610;DHT22;6876;50.788;4.940;2022-11-15T02:25:03;11.30;99.90
13610;DHT22;6876;50.788;4.940;2022-11-15T02:28:26;11.30;99.90
13610;DHT22;6876;50.788;4.940;2022-11-15T02:31:24;11.40;99.90
13610;DHT22;6876;50.788;4.940;2022-11-15T02:34:20;11.30;99.90
13610;DHT22;6876;50.788;4.940;2022-11-15T02:37:16;11.30;99.90
13610;DHT22;6876;50.788;4.940;2022-11-15T02:40:09;11.30;99.90
13610;DHT22;6876;50.788;4.940;2022-11-15T02:43:04;11.30;99.90
13610;DHT22;6876;50.788;4.940;2022-11-15T02:46:15;11.30;99.90
13610;DHT22;6876;50.788;4.940;2022-11-15T02:49:06;11.30;99.90
13610;DHT22;6876;50.788;4.940;2022-11-15T02:51:55;11.20;99.90
13610;DHT22;6876;50.788;4.940;2022-11-15T02:54:43;11.20;99.90
13610;DHT22;6876;50.788;4.940;2022-11-15T02:57:45;11.20;99.90
13610;DHT22;6876;50.788;4.940;2022-11-15T03:00:41;11.20;99.90
13610;DHT22;6876;50.788;4.940;2022-11-15T03:03:45;11.20;99.90
13610;DHT22;6876;50.788;4.940;2022-11-15T03:06:41;11.20;99.90
13610;DHT22;6876;50.788;4.940;2022-11-15T03:09:33;11.30;99.90
13610;DHT22;6876;50.788;4.940;2022-11-15T03:12:25;11.30;99.90
13610;DHT22;6876;50.788;4.940;2022-11-15T03:15:20;11.20;99.90
13610;DHT22;6876;50.788;4.940;2022-11-15T03:18:14;11.20;99.90
13610;DHT22;6876;50.788;4.940;2022-11-15T03:21:05;11.20;99.90
13610;DHT22;6876;50.788;4.940;2022-11-15T03:23:55;11.20;99.90
13610;DHT22;6876;50.788;4.940;2022-11-15T03:26:46;11.20;99.90
13610;DHT22;6876;50.788;4.940;2022-11-15T03:29:39;11.30;99.90
13610;DHT22;6876;50.788;4.940;2022-11-15T03:32:31;11.20;99.90
13610;DHT22;6876;50.788;4.940;2022-11-15T03:35:21;11.30;99.90
13610;DHT22;6876;50.788;4.940;2022-11-15T03:38:14;11.20;99.90
13610;DHT22;6876;50.788;4.940;2022-11-15T03:41:06;11.30;99.90
13610;DHT22;6876;50.788;4.940;2022-11-15T03:44:05;11.20;99.90
13610;DHT22;6876;50.788;4.940;2022-11-15T03:47:00;11.20;99.90
13610;DHT22;6876;50.788;4.940;2022-11-15T03:49:52;11.20;99.90
13610;DHT22;6876;50.788;4.940;2022-11-15T03:52:40;11.20;99.90
13610;DHT22;6876;50.788;4.940;2022-11-15T03:55:28;11.20;99.90
13610;DHT22;6876;50.788;4.940;2022-11-15T03:58:16;11.30;99.90
13610;DHT22;6876;50.788;4.940;2022-11-15T04:01:04;11.20;99.90
13610;DHT22;6876;50.788;4.940;2022-11-15T04:03:51;11.20;99.90
13610;DHT22;6876;50.788;4.940;2022-11-15T04:06:38;11.20;99.90
13610;DHT22;6876;50.788;4.940;2022-11-15T04:09:25;11.10;99.90
13610;DHT22;6876;50.788;4.940;2022-11-15T04:12:12;11.10;99.90
13610;DHT22;6876;50.788;4.940;2022-11-15T04:15:19;11.00;99.90
13610;DHT22;6876;50.788;4.940;2022-11-15T04:18:07;11.00;99.90
13610;DHT22;6876;50.788;4.940;2022-11-15T04:20:54;11.00;99.90
13610;DHT22;6876;50.788;4.940;2022-11-15T04:23:59;11.00;99.90
13610;DHT22;6876;50.788;4.940;2022-11-15T04:27:01;10.90;99.90
13610;DHT22;6876;50.788;4.940;2022-11-15T04:29:48;10.90;99.90
13610;DHT22;6876;50.788;4.940;2022-11-15T04:32:37;10.80;99.90
13610;DHT22;6876;50.788;4.940;2022-11-15T04:35:24;10.80;99.90
13610;DHT22;6876;50.788;4.940;2022-11-15T04:38:11;10.70;99.90
13610;DHT22;6876;50.788;4.940;2022-11-15T04:40:59;10.70;99.90
13610;DHT22;6876;50.788;4.940;2022-11-15T04:43:46;10.60;99.90
13610;DHT22;6876;50.788;4.940;2022-11-15T04:46:33;10.60;99.90
13610;DHT22;6876;50.788;4.940;2022-11-15T04:49:22;10.60;99.90
13610;DHT22;6876;50.788;4.940;2022-11-15T04:52:09;10.60;99.90
13610;DHT22;6876;50.788;4.940;2022-11-15T04:54:56;10.50;99.90
13610;DHT22;6876;50.788;4.940;2022-11-15T04:57:43;10.50;99.90
13610;DHT22;6876;50.788;4.940;2022-11-15T05:00:30;10.50;99.90
13610;DHT22;6876;50.788;4.940;2022-11-15T05:03:18;10.50;99.90
13610;DHT22;6876;50.788;4.940;2022-11-15T05:06:23;10.60;99.90
13610;DHT22;6876;50.788;4.940;2022-11-15T05:09:11;10.60;99.90
13610;DHT22;6876;50.788;4.940;2022-11-15T05:11:58;10.60;99.90
13610;DHT22;6876;50.788;4.940;2022-11-15T05:14:46;10.60;99.90
13610;DHT22;6876;50.788;4.940;2022-11-15T05:17:33;10.60;99.90
13610;DHT22;6876;50.788;4.940;2022-11-15T05:20:20;10.60;99.90
13610;DHT22;6876;50.788;4.940;2022-11-15T05:23:08;10.60;99.90
13610;DHT22;6876;50.788;4.940;2022-11-15T05:25:58;10.60;99.90
13610;DHT22;6876;50.788;4.940;2022-11-15T05:28:45;10.50;99.90
13610;DHT22;6876;50.788;4.940;2022-11-15T05:31:33;10.50;99.90
13610;DHT22;6876;50.788;4.940;2022-11-15T05:34:20;10.50;99.90
13610;DHT22;6876;50.788;4.940;2022-11-15T05:37:08;10.50;99.90
13610;DHT22;6876;50.788;4.940;2022-11-15T05:39:57;10.40;99.90
13610;DHT22;6876;50.788;4.940;2022-11-15T05:42:44;10.40;99.90
13610;DHT22;6876;50.788;4.940;2022-11-15T05:45:33;10.40;99.90
13610;DHT22;6876;50.788;4.940;2022-11-15T05:48:21;10.40;99.90
13610;DHT22;6876;50.788;4.940;2022-11-15T05:51:09;10.40;99.90
13610;DHT22;6876;50.788;4.940;2022-11-15T05:53:56;10.40;99.90
13610;DHT22;6876;50.788;4.940;2022-11-15T05:56:46;10.40;99.90
13610;DHT22;6876;50.788;4.940;2022-11-15T05:59:34;10.30;99.90
13610;DHT22;6876;50.788;4.940;2022-11-15T06:02:22;10.30;99.90
13610;DHT22;6876;50.788;4.940;2022-11-15T06:05:09;10.20;99.90
13610;DHT22;6876;50.788;4.940;2022-11-15T06:07:57;10.20;99.90
13610;DHT22;6876;50.788;4.940;2022-11-15T06:10:44;10.10;99.90
13610;DHT22;6876;50.788;4.940;2022-11-15T06:13:33;10.10;99.90
13610;DHT22;6876;50.788;4.940;2022-11-15T06:16:21;10.10;99.90
13610;DHT22;6876;50.788;4.940;2022-11-15T06:19:08;10.10;99.90
13610;DHT22;6876;50.788;4.940;2022-11-15T06:21:55;10.00;99.90
13610;DHT22;6876;50.788;4.940;2022-11-15T06:24:42;10.00;99.90
13610;DHT22;6876;50.788;4.940;2022-11-15T06:27:29;9.90;99.90
13610;DHT22;6876;50.788;4.940;2022-11-15T06:30:18;9.90;99.90
13610;DHT22;6876;50.788;4.940;2022-11-15T06:33:08;9.90;99.90
13610;DHT22;6876;50.788;4.940;2022-11-15T06:35:55;9.80;99.90
13610;DHT22;6876;50.788;4.940;2022-11-15T06:38:43;9.80;99.90
13610;DHT22;6876;50.788;4.940;2022-11-15T06:41:30;9.80;99.90
13610;DHT22;6876;50.788;4.940;2022-11-15T06:44:17;9.70;99.90
13610;DHT22;6876;50.788;4.940;2022-11-15T06:47:07;9.60;99.90
13610;DHT22;6876;50.788;4.940;2022-11-15T06:49:55;9.60;99.90
13610;DHT22;6876;50.788;4.940;2022-11-15T06:52:42;9.60;99.90
13610;DHT22;6876;50.788;4.940;2022-11-15T06:55:29;9.60;99.90
13610;DHT22;6876;50.788;4.940;2022-11-15T06:58:17;9.50;99.90
13610;DHT22;6876;50.788;4.940;2022-11-15T07:01:06;9.40;99.90
13610;DHT22;6876;50.788;4.940;2022-11-15T07:03:55;9.30;99.90
13610;DHT22;6876;50.788;4.940;2022-11-15T07:06:42;9.20;99.90
13610;DHT22;6876;50.788;4.940;2022-11-15T07:09:29;9.10;99.90
13610;DHT22;6876;50.788;4.940;2022-11-15T07:12:17;9.10;99.90
13610;DHT22;6876;50.788;4.940;2022-11-15T07:15:05;9.10;99.90
13610;DHT22;6876;50.788;4.940;2022-11-15T07:17:52;9.20;99.90
13610;DHT22;6876;50.788;4.940;2022-11-15T07:20:41;9.20;99.90
13610;DHT22;6876;50.788;4.940;2022-11-15T07:23:28;9.20;99.90
13610;DHT22;6876;50.788;4.940;2022-11-15T07:26:15;9.30;99.90
13610;DHT22;6876;50.788;4.940;2022-11-15T07:29:03;9.30;99.90
13610;DHT22;6876;50.788;4.940;2022-11-15T07:31:50;9.40;99.90
13610;DHT22;6876;50.788;4.940;2022-11-15T07:34:37;9.50;99.90
13610;DHT22;6876;50.788;4.940;2022-11-15T07:37:26;9.60;99.90
13610;DHT22;6876;50.788;4.940;2022-11-15T07:40:13;9.70;99.90
13610;DHT22;6876;50.788;4.940;2022-11-15T07:43:01;9.70;99.90
13610;DHT22;6876;50.788;4.940;2022-11-15T07:45:48;9.80;99.90
13610;DHT22;6876;50.788;4.940;2022-11-15T07:48:35;9.90;99.90
13610;DHT22;6876;50.788;4.940;2022-11-15T07:51:22;9.90;99.90
13610;DHT22;6876;50.788;4.940;2022-11-15T07:54:11;10.10;99.90
13610;DHT22;6876;50.788;4.940;2022-11-15T07:56:58;10.10;99.90
13610;DHT22;6876;50.788;4.940;2022-11-15T07:59:45;10.20;99.90
13610;DHT22;6876;50.788;4.940;2022-11-15T08:02:33;10.20;99.90
13610;DHT22;6876;50.788;4.940;2022-11-15T08:05:20;10.30;99.90
13610;DHT22;6876;50.788;4.940;2022-11-15T08:08:09;10.20;99.90
13610;DHT22;6876;50.788;4.940;2022-11-15T08:10:58;10.20;99.90
13610;DHT22;6876;50.788;4.940;2022-11-15T08:13:46;10.20;99.90
13610;DHT22;6876;50.788;4.940;2022-11-15T08:16:33;10.20;99.90
13610;DHT22;6876;50.788;4.940;2022-11-15T08:19:20;10.30;99.90
13610;DHT22;6876;50.788;4.940;2022-11-15T08:22:07;10.30;99.90
13610;DHT22;6876;50.788;4.940;2022-11-15T08:24:55;10.40;99.90
13610;DHT22;6876;50.788;4.940;2022-11-15T08:27:44;10.40;99.90
13610;DHT22;6876;50.788;4.940;2022-11-15T08:30:35;10.40;99.90
13610;DHT22;6876;50.788;4.940;2022-11-15T08:33:23;10.40;99.90
13610;DHT22;6876;50.788;4.940;2022-11-15T08:36:13;10.40;99.90
13610;DHT22;6876;50.788;4.940;2022-11-15T08:39:01;10.50;99.90
13610;DHT22;6876;50.788;4.940;2022-11-15T08:41:48;10.50;99.90
13610;DHT22;6876;50.788;4.940;2022-11-15T08:44:37;10.50;99.90
13610;DHT22;6876;50.788;4.940;2022-11-15T08:47:24;10.60;99.90
13610;DHT22;6876;50.788;4.940;2022-11-15T08:50:12;10.70;99.90
13610;DHT22;6876;50.788;4.940;2022-11-15T08:53:04;10.80;99.90
13610;DHT22;6876;50.788;4.940;2022-11-15T08:55:52;10.90;99.90
13610;DHT22;6876;50.788;4.940;2022-11-15T08:58:40;11.00;99.90
13610;DHT22;6876;50.788;4.940;2022-11-15T09:01:29;11.00;99.90
13610;DHT22;6876;50.788;4.940;2022-11-15T09:04:16;11.10;99.90
13610;DHT22;6876;50.788;4.940;2022-11-15T09:07:04;11.10;99.90
13610;DHT22;6876;50.788;4.940;2022-11-15T09:09:51;11.10;99.90
13610;DHT22;6876;50.788;4.940;2022-11-15T09:12:38;11.30;99.90
13610;DHT22;6876;50.788;4.940;2022-11-15T09:15:25;11.40;99.90
13610;DHT22;6876;50.788;4.940;2022-11-15T09:18:14;11.50;99.90
13610;DHT22;6876;50.788;4.940;2022-11-15T09:21:01;11.80;99.90
13610;DHT22;6876;50.788;4.940;2022-11-15T09:23:50;11.80;99.90
13610;DHT22;6876;50.788;4.940;2022-11-15T09:26:38;12.20;89.40
13610;DHT22;6876;50.788;4.940;2022-11-15T09:29:25;13.00;1.00
13610;DHT22;6876;50.788;4.940;2022-11-15T09:32:13;14.90;99.90
13610;DHT22;6876;50.788;4.940;2022-11-15T09:35:01;17.00;1.00
13610;DHT22;6876;50.788;4.940;2022-11-15T09:37:48;18.60;1.00
13610;DHT22;6876;50.788;4.940;2022-11-15T09:40:36;19.80;12.50
13610;DHT22;6876;50.788;4.940;2022-11-15T09:43:31;20.90;99.90
13610;DHT22;6876;50.788;4.940;2022-11-15T09:46:24;20.40;99.90
13610;DHT22;6876;50.788;4.940;2022-11-15T09:49:16;20.60;99.90
13610;DHT22;6876;50.788;4.940;2022-11-15T09:52:07;17.70;99.90
13610;DHT22;6876;50.788;4.940;2022-11-15T09:54:55;15.90;1.00
13610;DHT22;6876;50.788;4.940;2022-11-15T09:57:48;15.20;99.90
13610;DHT22;6876;50.788;4.940;2022-11-15T10:00:41;14.30;99.90
13610;DHT22;6876;50.788;4.940;2022-11-15T10:03:34;14.00;99.90
13610;DHT22;6876;50.788;4.940;2022-11-15T10:06:24;13.30;1.00
13610;DHT22;6876;50.788;4.940;2022-11-15T10:09:19;13.00;1.00
13610;DHT22;6876;50.788;4.940;2022-11-15T10:12:07;12.90;1.00
13610;DHT22;6876;50.788;4.940;2022-11-15T10:15:00;13.10;1.00
13610;DHT22;6876;50.788;4.940;2022-11-15T10:18:13;13.10;1.00
13610;DHT22;6876;50.788;4.940;2022-11-15T10:21:09;13.00;1.00
13610;DHT22;6876;50.788;4.940;2022-11-15T10:24:00;13.00;1.00
13610;DHT22;6876;50.788;4.940;2022-11-15T10:26:50;13.00;1.00
13610;DHT22;6876;50.788;4.940;2022-11-15T10:29:42;12.80;1.00
13610;DHT22;6876;50.788;4.940;2022-11-15T10:32:32;12.60;1.00
13610;DHT22;6876;50.788;4.940;2022-11-15T10:35:24;12.60;1.00
13610;DHT22;6876;50.788;4.940;2022-11-15T10:38:12;12.70;1.00
13610;DHT22;6876;50.788;4.940;2022-11-15T10:41:07;12.90;1.00
13610;DHT22;6876;50.788;4.940;2022-11-15T10:44:12;13.10;1.00
13610;DHT22;6876;50.788;4.940;2022-11-15T10:47:07;13.30;1.00
13610;DHT22;6876;50.788;4.940;2022-11-15T10:50:28;13.40;1.00
13610;DHT22;6876;50.788;4.940;2022-11-15T10:53:20;13.40;1.00
13610;DHT22;6876;50.788;4.940;2022-11-15T10:56:12;13.40;1.00
13610;DHT22;6876;50.788;4.940;2022-11-15T10:59:03;13.40;1.00
13610;DHT22;6876;50.788;4.940;2022-11-15T11:01:50;13.50;1.00
13610;DHT22;6876;50.788;4.940;2022-11-15T11:04:49;13.40;1.00
13610;DHT22;6876;50.788;4.940;2022-11-15T11:07:36;13.40;1.00
13610;DHT22;6876;50.788;4.940;2022-11-15T11:10:23;13.30;1.00
13610;DHT22;6876;50.788;4.940;2022-11-15T11:13:15;13.20;1.00
13610;DHT22;6876;50.788;4.940;2022-11-15T11:16:19;13.30;1.00
13610;DHT22;6876;50.788;4.940;2022-11-15T11:19:18;13.40;99.90
13610;DHT22;6876;50.788;4.940;2022-11-15T11:22:14;13.40;1.00
13610;DHT22;6876;50.788;4.940;2022-11-15T11:25:15;13.40;99.90
13610;DHT22;6876;50.788;4.940;2022-11-15T11:28:21;13.50;95.30
13610;DHT22;6876;50.788;4.940;2022-11-15T11:31:20;13.40;99.90
13610;DHT22;6876;50.788;4.940;2022-11-15T11:34:15;13.50;99.90
13610;DHT22;6876;50.788;4.940;2022-11-15T11:37:11;13.60;99.90
13610;DHT22;6876;50.788;4.940;2022-11-15T11:40:12;13.60;99.90
13610;DHT22;6876;50.788;4.940;2022-11-15T11:43:06;13.70;99.90
13610;DHT22;6876;50.788;4.940;2022-11-15T11:46:09;13.60;1.00
13610;DHT22;6876;50.788;4.940;2022-11-15T11:49:04;13.50;99.90
13610;DHT22;6876;50.788;4.940;2022-11-15T11:52:01;13.60;99.90
13610;DHT22;6876;50.788;4.940;2022-11-15T11:54:58;13.60;1.00
13610;DHT22;6876;50.788;4.940;2022-11-15T11:57:49;13.60;1.00
13610;DHT22;6876;50.788;4.940;2022-11-15T12:00:41;13.60;1.00
13610;DHT22;6876;50.788;4.940;2022-11-15T12:03:34;13.60;1.00
13610;DHT22;6876;50.788;4.940;2022-11-15T12:06:32;13.60;1.00
13610;DHT22;6876;50.788;4.940;2022-11-15T12:09:23;13.70;1.00
13610;DHT22;6876;50.788;4.940;2022-11-15T12:12:18;13.70;1.00
13610;DHT22;6876;50.788;4.940;2022-11-15T12:15:13;13.70;1.00
13610;DHT22;6876;50.788;4.940;2022-11-15T12:18:01;13.70;1.00
13610;DHT22;6876;50.788;4.940;2022-11-15T12:20:52;13.60;1.00
13610;DHT22;6876;50.788;4.940;2022-11-15T12:23:46;13.60;1.00
13610;DHT22;6876;50.788;4.940;2022-11-15T12:26:39;13.60;1.00
13610;DHT22;6876;50.788;4.940;2022-11-15T12:29:31;13.70;1.00
13610;DHT22;6876;50.788;4.940;2022-11-15T12:32:27;13.70;1.00
13610;DHT22;6876;50.788;4.940;2022-11-15T12:35:23;13.70;1.00
13610;DHT22;6876;50.788;4.940;2022-11-15T12:38:11;13.60;1.00
13610;DHT22;6876;50.788;4.940;2022-11-15T12:41:16;13.60;1.00
13610;DHT22;6876;50.788;4.940;2022-11-15T12:44:09;13.60;1.00
13610;DHT22;6876;50.788;4.940;2022-11-15T12:47:03;13.60;1.00
13610;DHT22;6876;50.788;4.940;2022-11-15T12:49:50;13.60;1.00
13610;DHT22;6876;50.788;4.940;2022-11-15T12:56:23;13.60;1.00
13610;DHT22;6876;50.788;4.940;2022-11-15T12:59:39;13.60;1.00
13610;DHT22;6876;50.788;4.940;2022-11-15T13:02:18;13.50;1.00
13610;DHT22;6876;50.788;4.940;2022-11-15T13:05:59;13.50;1.00
13610;DHT22;6876;50.788;4.940;2022-11-15T13:08:49;13.50;1.00
13610;DHT22;6876;50.788;4.940;2022-11-15T13:11:51;13.50;7.00
13610;DHT22;6876;50.788;4.940;2022-11-15T13:14:50;13.50;1.00
13610;DHT22;6876;50.788;4.940;2022-11-15T13:17:38;13.60;1.00
13610;DHT22;6876;50.788;4.940;2022-11-15T13:20:27;13.60;1.00
13610;DHT22;6876;50.788;4.940;2022-11-15T13:23:15;13.70;1.00
13610;DHT22;6876;50.788;4.940;2022-11-15T13:26:12;13.80;1.00
13610;DHT22;6876;50.788;4.940;2022-11-15T13:29:01;13.80;1.00
13610;DHT22;6876;50.788;4.940;2022-11-15T13:31:48;13.80;1.00
13610;DHT22;6876;50.788;4.940;2022-11-15T13:34:37;13.70;1.00
13610;DHT22;6876;50.788;4.940;2022-11-15T13:37:29;13.70;1.00
13610;DHT22;6876;50.788;4.940;2022-11-15T13:40:23;13.70;1.00
13610;DHT22;6876;50.788;4.940;2022-11-15T13:43:26;13.80;1.00
13610;DHT22;6876;50.788;4.940;2022-11-15T13:46:18;13.80;1.00
13610;DHT22;6876;50.788;4.940;2022-11-15T13:49:08;13.70;1.00
13610;DHT22;6876;50.788;4.940;2022-11-15T13:51:57;13.70;1.00
13610;DHT22;6876;50.788;4.940;2022-11-15T13:54:47;13.60;12.50
13610;DHT22;6876;50.788;4.940;2022-11-15T13:57:40;13.60;24.50
13610;DHT22;6876;50.788;4.940;2022-11-15T14:00:37;13.70;4.80
13610;DHT22;6876;50.788;4.940;2022-11-15T14:03:29;13.70;1.00
13610;DHT22;6876;50.788;4.940;2022-11-15T14:06:18;13.60;6.50
13610;DHT22;6876;50.788;4.940;2022-11-15T14:09:29;13.60;1.00
13610;DHT22;6876;50.788;4.940;2022-11-15T14:12:36;13.60;3.30
13610;DHT22;6876;50.788;4.940;2022-11-15T14:15:28;13.60;27.10
13610;DHT22;6876;50.788;4.940;2022-11-15T14:18:43;13.60;17.30
13610;DHT22;6876;50.788;4.940;2022-11-15T14:21:31;13.60;1.00
13610;DHT22;6876;50.788;4.940;2022-11-15T14:24:20;13.60;1.00
13610;DHT22;6876;50.788;4.940;2022-11-15T14:27:19;13.60;1.00
13610;DHT22;6876;50.788;4.940;2022-11-15T14:30:13;13.60;1.00
13610;DHT22;6876;50.788;4.940;2022-11-15T14:33:00;13.60;1.00
13610;DHT22;6876;50.788;4.940;2022-11-15T14:35:50;13.60;1.00
13610;DHT22;6876;50.788;4.940;2022-11-15T14:38:38;13.60;1.00
13610;DHT22;6876;50.788;4.940;2022-11-15T14:41:26;13.50;1.00
13610;DHT22;6876;50.788;4.940;2022-11-15T14:44:13;13.50;2.00
13610;DHT22;6876;50.788;4.940;2022-11-15T14:47:04;13.50;17.30
13610;DHT22;6876;50.788;4.940;2022-11-15T14:49:51;13.50;7.00
13610;DHT22;6876;50.788;4.940;2022-11-15T14:52:40;13.50;48.50
13610;DHT22;6876;50.788;4.940;2022-11-15T14:55:30;13.40;99.90
13610;DHT22;6876;50.788;4.940;2022-11-15T14:58:18;13.30;99.90
13610;DHT22;6876;50.788;4.940;2022-11-15T15:01:12;13.30;99.90
13610;DHT22;6876;50.788;4.940;2022-11-15T15:04:00;13.20;99.90
13610;DHT22;6876;50.788;4.940;2022-11-15T15:06:47;13.10;99.90
13610;DHT22;6876;50.788;4.940;2022-11-15T15:09:36;13.10;99.90
13610;DHT22;6876;50.788;4.940;2022-11-15T15:12:23;13.10;99.90
13610;DHT22;6876;50.788;4.940;2022-11-15T15:15:15;13.10;99.90
13610;DHT22;6876;50.788;4.940;2022-11-15T15:18:04;13.10;99.90
13610;DHT22;6876;50.788;4.940;2022-11-15T15:20:56;13.00;99.90
13610;DHT22;6876;50.788;4.940;2022-11-15T15:23:45;13.10;99.90
13610;DHT22;6876;50.788;4.940;2022-11-15T15:26:34;13.00;99.90
13610;DHT22;6876;50.788;4.940;2022-11-15T15:29:22;13.00;99.90
13610;DHT22;6876;50.788;4.940;2022-11-15T15:32:10;13.00;99.90
13610;DHT22;6876;50.788;4.940;2022-11-15T15:34:59;13.00;99.90
13610;DHT22;6876;50.788;4.940;2022-11-15T15:37:47;12.90;99.90
13610;DHT22;6876;50.788;4.940;2022-11-15T15:40:35;12.90;99.90
13610;DHT22;6876;50.788;4.940;2022-11-15T15:43:24;12.80;99.90
13610;DHT22;6876;50.788;4.940;2022-11-15T15:46:12;12.90;99.90
13610;DHT22;6876;50.788;4.940;2022-11-15T15:49:00;12.80;99.90
13610;DHT22;6876;50.788;4.940;2022-11-15T15:51:48;12.80;99.90
13610;DHT22;6876;50.788;4.940;2022-11-15T15:54:35;12.80;99.90
13610;DHT22;6876;50.788;4.940;2022-11-15T15:57:23;12.80;99.90
13610;DHT22;6876;50.788;4.940;2022-11-15T16:00:13;12.70;99.90
13610;DHT22;6876;50.788;4.940;2022-11-15T16:03:00;12.60;99.90
13610;DHT22;6876;50.788;4.940;2022-11-15T16:05:49;12.60;99.90
13610;DHT22;6876;50.788;4.940;2022-11-15T16:08:37;12.50;99.90
13610;DHT22;6876;50.788;4.940;2022-11-15T16:11:24;12.40;99.90
13610;DHT22;6876;50.788;4.940;2022-11-15T16:14:11;12.40;99.90
13610;DHT22;6876;50.788;4.940;2022-11-15T16:17:00;12.40;99.90
13610;DHT22;6876;50.788;4.940;2022-11-15T16:19:47;12.40;99.90
13610;DHT22;6876;50.788;4.940;2022-11-15T16:22:35;12.30;99.90
13610;DHT22;6876;50.788;4.940;2022-11-15T16:25:22;12.30;99.90
13610;DHT22;6876;50.788;4.940;2022-11-15T16:28:17;12.30;99.90
13610;DHT22;6876;50.788;4.940;2022-11-15T16:31:07;12.30;99.90
13610;DHT22;6876;50.788;4.940;2022-11-15T16:33:56;12.30;99.90
13610;DHT22;6876;50.788;4.940;2022-11-15T16:36:43;12.20;99.90
13610;DHT22;6876;50.788;4.940;2022-11-15T16:39:30;12.20;99.90
13610;DHT22;6876;50.788;4.940;2022-11-15T16:42:18;12.20;99.90
13610;DHT22;6876;50.788;4.940;2022-11-15T16:45:07;12.10;99.90
13610;DHT22;6876;50.788;4.940;2022-11-15T16:47:57;12.10;99.90
13610;DHT22;6876;50.788;4.940;2022-11-15T16:50:49;12.10;99.90
13610;DHT22;6876;50.788;4.940;2022-11-15T16:53:36;12.10;99.90
13610;DHT22;6876;50.788;4.940;2022-11-15T16:56:25;12.10;99.90
13610;DHT22;6876;50.788;4.940;2022-11-15T16:59:16;12.10;99.90
13610;DHT22;6876;50.788;4.940;2022-11-15T17:02:09;12.20;99.90
13610;DHT22;6876;50.788;4.940;2022-11-15T17:05:03;12.20;99.90
13610;DHT22;6876;50.788;4.940;2022-11-15T17:07:53;12.20;99.90
13610;DHT22;6876;50.788;4.940;2022-11-15T17:10:40;12.20;99.90
13610;DHT22;6876;50.788;4.940;2022-11-15T17:13:27;12.30;99.90
13610;DHT22;6876;50.788;4.940;2022-11-15T17:16:17;12.30;99.90
13610;DHT22;6876;50.788;4.940;2022-11-15T17:19:04;12.30;99.90
13610;DHT22;6876;50.788;4.940;2022-11-15T17:21:51;12.30;99.90
13610;DHT22;6876;50.788;4.940;2022-11-15T17:24:40;12.30;99.90
13610;DHT22;6876;50.788;4.940;2022-11-15T17:27:27;12.30;99.90
13610;DHT22;6876;50.788;4.940;2022-11-15T17:30:15;12.30;99.90
13610;DHT22;6876;50.788;4.940;2022-11-15T17:33:03;12.30;99.90
13610;DHT22;6876;50.788;4.940;2022-11-15T17:35:57;12.30;99.90
13610;DHT22;6876;50.788;4.940;2022-11-15T17:38:45;12.30;99.90
13610;DHT22;6876;50.788;4.940;2022-11-15T17:41:36;12.40;99.90
13610;DHT22;6876;50.788;4.940;2022-11-15T17:44:23;12.40;99.90
13610;DHT22;6876;50.788;4.940;2022-11-15T17:47:10;12.40;99.90
13610;DHT22;6876;50.788;4.940;2022-11-15T17:49:58;12.40;99.90
13610;DHT22;6876;50.788;4.940;2022-11-15T17:52:45;12.30;99.90
13610;DHT22;6876;50.788;4.940;2022-11-15T17:55:33;12.40;99.90
13610;DHT22;6876;50.788;4.940;2022-11-15T17:58:21;12.40;99.90
13610;DHT22;6876;50.788;4.940;2022-11-15T18:01:14;12.40;99.90
13610;DHT22;6876;50.788;4.940;2022-11-15T18:04:07;12.40;99.90
13610;DHT22;6876;50.788;4.940;2022-11-15T18:06:59;12.40;99.90
13610;DHT22;6876;50.788;4.940;2022-11-15T18:09:47;12.40;99.90
13610;DHT22;6876;50.788;4.940;2022-11-15T18:12:35;12.40;99.90
13610;DHT22;6876;50.788;4.940;2022-11-15T18:15:23;12.40;99.90
13610;DHT22;6876;50.788;4.940;2022-11-15T18:18:12;12.40;99.90
13610;DHT22;6876;50.788;4.940;2022-11-15T18:21:03;12.40;99.90
13610;DHT22;6876;50.788;4.940;2022-11-15T18:23:52;12.40;99.90